首页
METAR-TAF:

METAR-TAF

机场 :

Eau Claire, 威斯康辛州, 美国

纬度: 44-51-55N, 经度: 091-29-06W, 海拔: 277米

当前天气观测

该预报发布于27分钟前的23:56 UTC
风速10节,风向南转西南
温度 30°C
湿度 62%
气压 1004 hPa
能見度: 16.1公里
少量云层高于6000英尺

METAR: KEAU 162356Z 20010KT 10SM FEW060 30/22 A2966 RMK AO2 SLP036 T03000217 10300 20261 53002 $

时间: 19:23 (00:23 UTC)

预报

该预报发布于49分钟前的23:34 UTC
预报有效从17日的 00点(UTC)到 17日的 24点(UTC)
风速6节,风向南转西南
能見度: 10公里
多云层高于4000英尺
从 17日的 0700点(UTC)
风速节,风向
能見度: 9.7公里
多云层高于6000英尺
轻雾
从 17日的 1100点(UTC)
风速节,风向
能見度: 6.4公里
多云层高于4000英尺, 积雨云.
雷暴, 小雨, 轻雾
从 17日的 1500点(UTC)
风速4节,风向
能見度: 9.7公里
多云层高于2500英尺
阵雨, 轻雾
几率 30%
从 17日的 15点(UTC)到 17日的 19点(UTC)
能見度: 6.4公里
阴天层高于1500英尺, 积雨云.
雷暴, 轻雾
从 17日的 1900点(UTC)
风速8节,风向南转南东
能見度: 10公里
阴天层高于1500英尺

TAF: KEAU 162334Z 1700/1724 20006KT P6SM BKN040 FM170700 00000KT 6SM BR BKN060 FM171100 00000KT 4SM -TSRA BR BKN040CB FM171500 17004KT 6SM SHRA BR BKN025 PROB30 1715/1719 4SM TS BR OVC015CB FM171900 15008KT P6SM OVC015

超过4000个机场的气象观测和天气预报(METAR&TAF报告)。

可查询的气象台以黄色和红色小点在地图上表示。

将鼠标移到小点上方,可查看气象台名称。

然后点击查看天气观测和预报。

如需切换地图:点击带黑十字的绿色按钮放大地图;点击带横线的绿色按钮缩小地图;或者点击绿色箭头查看邻近地区的地图。


METAR-TAF: